KRGA Airport (Central Kentucky Rgnl) Information

FAA: RGA - ICAO: KRGA

KRGA Airport Location

State Kentucky
County Madison
City Richmond
KRGA Airport is 8 miles southwest of Richmond, KY.
Latitude 37-37-53.5189N
Longitude 084-19-56.7855W
Elevation 1,002ft

KRGA Airport METARs

METAR KRGA 032155Z AUTO 22008KT 10SM CLR 20/07 A2994 RMK AO2
Altimeter 29.94"
Temperature 20.0°C (68.0°F)
Wind 220° at 8KT
Clouds Skies are clear.
Visibility 10.0mi
Time observed: 2021-12-03T21:55:00Z

KRGA Airport Details

Status Operational
Activation April 1986
Ownership Public
Usage Public
Chart CINCINNATI
ATC on-site No
Beacon schedule sunset-sunrise
Beacon color clear green

KRGA Airport Contacts

Owner MADISON AIRPORT BOARD INC
Owner address 124 MADISON AIRPORT ROAD, P.O. BOX 2114, RICHMOND, KY 40476
Owner phone 859-661-1338
Manager EDWARD HIRSH
Manager address 2622 BETHLEHEM RD, PARIS, KY 40361
Manager phone (859) 699-9595

KRGA Airport (Central Kentucky Rgnl) Radio Frequencies

KRGA (Airport) Radio Frequencies

UNICOM 122.725
Common traffic advisory frequency (CTAF) 122.725